createdAt,value
2022-09-13T00:01:28.334Z,100462.63
2022-09-13T00:03:55.362Z,100470.81
2022-09-13T00:06:22.597Z,100448.47
2022-09-13T00:08:49.910Z,100459.88
2022-09-13T00:11:20.609Z,100455.56
2022-09-13T00:13:47.956Z,100460.22
2022-09-13T00:16:17.328Z,100462.97
2022-09-13T00:18:44.386Z,100465.78
2022-09-13T00:21:14.566Z,100462.25
2022-09-13T00:23:44.966Z,100449.16
2022-09-13T00:26:14.389Z,100439.16
2022-09-13T00:28:41.632Z,100440.97
2022-09-13T00:31:09.603Z,100442.88
2022-09-13T00:33:37.220Z,100441.19
2022-09-13T00:36:09.369Z,100447.00
2022-09-13T00:38:40.267Z,100440.94
2022-09-13T00:41:12.248Z,100450.59
2022-09-13T00:43:48.426Z,100449.13
2022-09-13T00:46:39.822Z,100444.63
2022-09-13T00:49:24.001Z,100446.53
2022-09-13T00:51:56.992Z,100444.38
2022-09-13T00:54:27.595Z,100445.78
2022-09-13T00:56:59.370Z,100449.22
2022-09-13T00:59:53.348Z,100444.25
2022-09-13T01:02:21.098Z,100444.88
2022-09-13T01:04:48.521Z,100446.56
2022-09-13T01:07:17.732Z,100429.88
2022-09-13T01:09:49.794Z,100443.84
2022-09-13T01:12:56.876Z,100453.38
2022-09-13T01:15:24.179Z,100445.88
2022-09-13T01:17:53.084Z,100442.09
2022-09-13T01:20:28.497Z,100438.53
2022-09-13T01:23:26.559Z,100450.53
2022-09-13T01:26:27.065Z,100444.91
2022-09-13T01:29:11.294Z,100448.25
2022-09-13T01:31:46.035Z,100453.03
2022-09-13T01:34:19.363Z,100448.03
2022-09-13T01:36:46.185Z,100454.31
2022-09-13T01:39:38.687Z,100443.84
2022-09-13T01:42:17.589Z,100448.53
2022-09-13T01:45:20.835Z,100451.72
2022-09-13T01:48:28.546Z,100454.94
2022-09-13T01:51:08.921Z,100450.69
2022-09-13T01:53:57.477Z,100441.81
2022-09-13T01:56:35.562Z,100449.16
2022-09-13T01:59:11.882Z,100439.47
2022-09-13T02:01:46.589Z,100430.69
2022-09-13T02:04:19.537Z,100436.97
2022-09-13T02:06:56.761Z,100427.31
2022-09-13T02:09:27.758Z,100426.13
2022-09-13T02:12:02.952Z,100424.19
2022-09-13T02:14:38.752Z,100429.78
2022-09-13T02:17:23.317Z,100434.38
2022-09-13T02:19:58.182Z,100423.13
2022-09-13T02:22:36.217Z,100417.66
2022-09-13T02:25:09.067Z,100417.19
2022-09-13T02:27:38.641Z,100412.53
2022-09-13T02:30:08.253Z,100421.34
2022-09-13T02:32:48.990Z,100416.00
2022-09-13T02:35:42.397Z,100407.34
2022-09-13T02:38:16.673Z,100407.75
2022-09-13T02:40:49.492Z,100411.22
2022-09-13T02:43:22.661Z,100410.88
2022-09-13T02:46:16.729Z,100404.13
2022-09-13T02:49:05.087Z,100393.22
2022-09-13T02:51:49.851Z,100417.78
2022-09-13T02:54:30.321Z,100411.59
2022-09-13T02:57:12.969Z,100412.09
2022-09-13T02:59:39.932Z,100407.34
2022-09-13T03:02:11.333Z,100410.66
2022-09-13T03:04:38.421Z,100409.00
2022-09-13T03:07:13.253Z,100415.06
2022-09-13T03:09:52.221Z,100416.13
2022-09-13T03:12:31.209Z,100429.09
2022-09-13T03:15:30.846Z,100421.13
2022-09-13T03:18:31.297Z,100409.72
2022-09-13T03:21:30.333Z,100407.59
2022-09-13T03:24:30.422Z,100404.63
2022-09-13T03:27:21.717Z,100394.19
2022-09-13T03:30:04.345Z,100398.78
2022-09-13T03:32:51.908Z,100385.59
2022-09-13T03:35:32.209Z,100393.94
2022-09-13T03:38:11.010Z,100394.53
2022-09-13T03:40:47.165Z,100393.34
2022-09-13T03:43:20.145Z,100392.41
2022-09-13T03:45:54.758Z,100389.66
2022-09-13T03:48:23.417Z,100378.03
2022-09-13T03:50:50.688Z,100383.34
2022-09-13T03:53:23.688Z,100373.59
2022-09-13T03:55:50.660Z,100382.78
2022-09-13T03:58:20.686Z,100381.94
2022-09-13T04:00:47.844Z,100375.41
2022-09-13T04:03:15.410Z,100374.59
2022-09-13T04:05:42.382Z,100377.09
2022-09-13T04:08:09.764Z,100374.81
2022-09-13T04:10:37.652Z,100378.72
2022-09-13T04:13:05.072Z,100383.97
2022-09-13T04:15:32.005Z,100387.16
2022-09-13T04:17:59.827Z,100381.94
2022-09-13T04:20:26.828Z,100387.41
2022-09-13T04:22:54.944Z,100396.22
2022-09-13T04:25:22.875Z,100400.13
2022-09-13T04:27:59.956Z,100400.69
2022-09-13T04:30:28.072Z,100400.94
2022-09-13T04:32:57.049Z,100405.59
2022-09-13T04:35:23.952Z,100412.69
2022-09-13T04:37:50.906Z,100405.59
2022-09-13T04:40:17.871Z,100405.34
2022-09-13T04:42:45.296Z,100409.50
2022-09-13T04:45:12.256Z,100413.88
2022-09-13T04:47:39.282Z,100410.34
2022-09-13T04:50:07.081Z,100413.06
2022-09-13T04:52:34.122Z,100416.28
2022-09-13T04:55:01.972Z,100408.91
2022-09-13T04:57:29.250Z,100418.16
2022-09-13T04:59:56.177Z,100411.41
2022-09-13T05:02:23.230Z,100418.41
2022-09-13T05:04:50.200Z,100416.28
2022-09-13T05:07:17.497Z,100417.09
2022-09-13T05:09:44.492Z,100414.13
2022-09-13T05:12:11.768Z,100405.69
2022-09-13T05:14:38.797Z,100406.53
2022-09-13T05:17:05.757Z,100414.03
2022-09-13T05:19:32.963Z,100401.19
2022-09-13T05:22:00.422Z,100410.81
2022-09-13T05:24:27.605Z,100413.31
2022-09-13T05:26:54.521Z,100408.91
2022-09-13T05:29:21.409Z,100405.94
2022-09-13T05:31:48.379Z,100416.28
2022-09-13T05:34:17.809Z,100419.59
2022-09-13T05:36:44.797Z,100411.41
2022-09-13T05:42:05.044Z,100415.59
2022-09-13T05:44:32.028Z,100402.16
2022-09-13T05:46:58.924Z,100401.31
2022-09-13T05:49:25.918Z,100394.06
2022-09-13T05:51:52.858Z,100397.25
2022-09-13T05:54:19.818Z,100408.66
2022-09-13T05:56:46.717Z,100403.56
2022-09-13T05:59:14.679Z,100400.59
2022-09-13T06:01:42.109Z,100404.75
2022-09-13T06:04:09.100Z,100404.88
2022-09-13T06:06:36.136Z,100416.53
2022-09-13T06:09:06.340Z,100413.06
2022-09-13T06:11:33.355Z,100406.41
2022-09-13T06:14:00.238Z,100409.75
2022-09-13T06:16:27.268Z,100416.16
2022-09-13T06:18:54.272Z,100419.97
2022-09-13T06:21:26.959Z,100404.75
2022-09-13T06:23:56.149Z,100418.03
2022-09-13T06:26:25.393Z,100416.63
2022-09-13T06:29:17.020Z,100417.72
2022-09-13T06:31:45.182Z,100407.25
2022-09-13T06:34:17.350Z,100414.13
2022-09-13T06:36:44.358Z,100416.88
2022-09-13T06:39:11.260Z,100411.63
2022-09-13T06:41:38.601Z,100404.03
2022-09-13T06:44:05.583Z,100398.66
2022-09-13T06:46:35.817Z,100403.16
2022-09-13T06:49:05.785Z,100405.06
2022-09-13T06:51:34.462Z,100402.44
2022-09-13T06:54:03.768Z,100409.31
2022-09-13T06:56:33.213Z,100400.16
2022-09-13T06:59:04.604Z,100404.91
2022-09-13T07:01:32.637Z,100405.34
2022-09-13T07:04:10.819Z,100403.53
2022-09-13T07:06:48.773Z,100408.53
2022-09-13T07:09:19.082Z,100395.75
2022-09-13T07:11:47.181Z,100409.56
2022-09-13T07:14:25.541Z,100414.03
2022-09-13T07:16:53.103Z,100411.91
2022-09-13T07:19:26.316Z,100399.28
2022-09-13T07:21:54.725Z,100409.22
2022-09-13T07:24:22.292Z,100414.78
2022-09-13T07:26:49.804Z,100410.22
2022-09-13T07:29:19.656Z,100414.47
2022-09-13T07:31:49.259Z,100411.00
2022-09-13T07:34:17.630Z,100409.41
2022-09-13T07:36:46.658Z,100413.44
2022-09-13T07:39:17.318Z,100411.09
2022-09-13T07:41:48.162Z,100405.69
2022-09-13T07:44:15.296Z,100412.56
2022-09-13T07:46:43.613Z,100405.03
2022-09-13T07:49:16.470Z,100409.19
2022-09-13T07:51:44.591Z,100410.44
2022-09-13T07:54:17.496Z,100407.53
2022-09-13T07:56:45.346Z,100414.91
2022-09-13T07:59:16.586Z,100409.19
2022-09-13T08:01:49.394Z,100414.81
2022-09-13T08:04:19.758Z,100411.66
2022-09-13T08:06:47.105Z,100407.81
2022-09-13T08:09:14.857Z,100425.28
2022-09-13T08:11:45.106Z,100416.00
2022-09-13T08:14:14.107Z,100418.06
2022-09-13T08:16:41.280Z,100418.72
2022-09-13T08:19:11.987Z,100412.75
2022-09-13T08:21:40.554Z,100409.84
2022-09-13T08:24:13.346Z,100408.81
2022-09-13T08:26:40.257Z,100409.06
2022-09-13T08:29:07.672Z,100409.75
2022-09-13T08:31:35.101Z,100408.72
2022-09-13T08:34:02.169Z,100411.25
2022-09-13T08:36:29.637Z,100419.22
2022-09-13T08:38:59.127Z,100415.97
2022-09-13T08:41:31.914Z,100414.38
2022-09-13T08:44:29.551Z,100421.59
2022-09-13T08:47:15.022Z,100410.34
2022-09-13T08:49:46.654Z,100419.38
2022-09-13T08:52:25.426Z,100411.44
2022-09-13T08:54:57.945Z,100409.50
2022-09-13T08:57:31.079Z,100422.97
2022-09-13T09:00:10.221Z,100412.88
2022-09-13T09:03:30.710Z,100414.00
2022-09-13T09:05:57.635Z,100408.00
2022-09-13T09:08:48.059Z,100422.69
2022-09-13T09:11:40.810Z,100393.75
2022-09-13T09:14:20.669Z,100407.63
2022-09-13T09:16:53.553Z,100409.91
2022-09-13T09:19:30.237Z,100409.97
2022-09-13T09:21:59.300Z,100410.03
2022-09-13T09:24:26.245Z,100412.78
2022-09-13T09:26:57.144Z,100422.22
2022-09-13T09:29:32.592Z,100416.72
2022-09-13T09:32:45.549Z,100426.09
2022-09-13T09:35:46.042Z,100417.63
2022-09-13T09:38:44.309Z,100421.97
2022-09-13T09:41:23.253Z,100421.25
2022-09-13T09:43:52.515Z,100420.19
2022-09-13T09:46:24.771Z,100417.22
2022-09-13T09:48:56.402Z,100403.72
2022-09-13T09:51:26.186Z,100415.84
2022-09-13T09:54:02.093Z,100422.19
2022-09-13T09:56:33.934Z,100417.53
2022-09-13T09:59:02.409Z,100419.72
2022-09-13T10:01:35.685Z,100416.69
2022-09-13T10:04:11.407Z,100415.03
2022-09-13T10:06:40.525Z,100413.34
2022-09-13T10:09:13.425Z,100413.66
2022-09-13T10:11:50.936Z,100414.78
2022-09-13T10:14:35.907Z,100414.22
2022-09-13T10:17:17.265Z,100404.31
2022-09-13T10:19:58.650Z,100401.81
2022-09-13T10:22:26.936Z,100400.38
2022-09-13T10:24:54.068Z,100395.44
2022-09-13T10:27:26.866Z,100400.31
2022-09-13T10:29:59.523Z,100396.50
2022-09-13T10:32:28.694Z,100388.78
2022-09-13T10:34:59.112Z,100392.72
2022-09-13T10:37:33.599Z,100389.16
2022-09-13T10:40:06.136Z,100390.59
2022-09-13T10:42:33.627Z,100385.69
2022-09-13T10:45:06.326Z,100382.94
2022-09-13T10:47:39.241Z,100385.47
2022-09-13T10:50:27.747Z,100380.34
2022-09-13T10:52:59.293Z,100375.41
2022-09-13T10:55:27.392Z,100372.72
2022-09-13T10:58:03.484Z,100371.63
2022-09-13T11:00:36.789Z,100368.91
2022-09-13T11:03:21.900Z,100370.06
2022-09-13T11:08:47.536Z,100363.56
2022-09-13T11:11:53.420Z,100371.28
2022-09-13T11:14:58.471Z,100364.13
2022-09-13T11:17:37.261Z,100358.06
2022-09-13T11:20:13.454Z,100358.63
2022-09-13T11:23:22.214Z,100352.00
2022-09-13T11:26:10.075Z,100347.28
2022-09-13T11:29:15.022Z,100349.72
2022-09-13T11:31:56.013Z,100347.50
2022-09-13T11:34:33.121Z,100340.34
2022-09-13T11:37:18.202Z,100334.25
2022-09-13T11:40:10.303Z,100333.13
2022-09-13T11:42:48.854Z,100331.78
2022-09-13T11:45:31.285Z,100338.66
2022-09-13T11:48:30.538Z,100333.13
2022-09-13T11:51:25.139Z,100330.63
2022-09-13T11:54:27.770Z,100325.41
2022-09-13T11:56:59.380Z,100328.69
2022-09-13T11:59:56.096Z,100335.53
2022-09-13T12:02:52.469Z,100340.81
2022-09-13T12:05:49.177Z,100344.38
2022-09-13T12:08:42.334Z,100331.47
2022-09-13T12:11:36.412Z,100329.56
2022-09-13T12:14:27.701Z,100326.00
2022-09-13T12:17:49.965Z,100326.03
2022-09-13T12:20:27.429Z,100313.94
2022-09-13T12:22:57.989Z,100316.41
2022-09-13T12:25:56.965Z,100311.69
2022-09-13T12:29:06.903Z,100302.34
2022-09-13T12:31:33.917Z,100301.81
2022-09-13T12:34:07.492Z,100300.69
2022-09-13T12:37:01.969Z,100305.09
2022-09-13T12:39:56.381Z,100294.63
2022-09-13T12:42:52.521Z,100298.78
2022-09-13T12:46:16.332Z,100298.47
2022-09-13T12:48:43.341Z,100299.00
2022-09-13T12:51:28.100Z,100292.34
2022-09-13T12:54:07.426Z,100301.44
2022-09-13T12:56:43.132Z,100297.00
2022-09-13T12:59:39.626Z,100296.72
2022-09-13T13:02:40.641Z,100297.16
2022-09-13T13:05:19.546Z,100295.50
2022-09-13T13:07:53.021Z,100281.69
2022-09-13T13:10:33.506Z,100280.28
2022-09-13T13:13:24.050Z,100275.53
2022-09-13T13:15:50.892Z,100275.22
2022-09-13T13:18:27.296Z,100279.03
2022-09-13T13:20:54.156Z,100273.50
2022-09-13T13:23:39.902Z,100273.78
2022-09-13T13:26:08.637Z,100282.66
2022-09-13T13:28:44.590Z,100267.19
2022-09-13T13:31:30.257Z,100277.13
2022-09-13T13:34:06.052Z,100275.16
2022-09-13T13:37:04.146Z,100269.34
2022-09-13T13:40:11.019Z,100266.84
2022-09-13T13:42:39.523Z,100266.50
2022-09-13T13:45:17.696Z,100275.91
2022-09-13T13:48:12.405Z,100270.94
2022-09-13T13:51:15.218Z,100268.38
2022-09-13T13:54:22.557Z,100259.97
2022-09-13T13:56:50.002Z,100260.34
2022-09-13T13:59:23.262Z,100260.16
2022-09-13T14:01:55.576Z,100259.69
2022-09-13T14:04:34.644Z,100255.09
2022-09-13T14:07:21.323Z,100252.06
2022-09-13T14:10:39.616Z,100247.84
2022-09-13T14:13:25.246Z,100243.72
2022-09-13T14:16:39.146Z,100240.75
2022-09-13T14:19:34.269Z,100241.72
2022-09-13T14:22:21.063Z,100234.06
2022-09-13T14:24:49.025Z,100241.31
2022-09-13T14:27:33.261Z,100244.69
2022-09-13T14:30:22.834Z,100241.94
2022-09-13T14:32:55.502Z,100231.44
2022-09-13T14:35:35.258Z,100215.66
2022-09-13T14:38:30.963Z,100234.06
2022-09-13T14:41:31.395Z,100228.00
2022-09-13T14:44:24.947Z,100225.81
2022-09-13T14:47:19.353Z,100236.75
2022-09-13T14:49:51.044Z,100229.69
2022-09-13T14:52:29.857Z,100224.09
2022-09-13T14:55:04.199Z,100225.06
2022-09-13T14:57:36.087Z,100233.69
2022-09-13T15:00:15.704Z,100225.53
2022-09-13T15:02:53.791Z,100231.13
2022-09-13T15:05:40.109Z,100236.75
2022-09-13T15:08:25.841Z,100229.66
2022-09-13T15:10:53.116Z,100219.53
2022-09-13T15:13:42.589Z,100226.50
2022-09-13T15:16:26.173Z,100215.81
2022-09-13T15:19:35.671Z,100219.19
2022-09-13T15:22:06.261Z,100225.31
2022-09-13T15:24:34.466Z,100221.81
2022-09-13T15:27:07.968Z,100231.25
2022-09-13T15:29:37.433Z,100221.56
2022-09-13T15:32:29.307Z,100214.72
2022-09-13T15:34:58.103Z,100223.53
2022-09-13T15:37:34.403Z,100223.28
2022-09-13T15:40:20.175Z,100229.13
2022-09-13T15:42:49.005Z,100227.22
2022-09-13T15:45:17.317Z,100230.84
2022-09-13T15:47:46.759Z,100234.22
2022-09-13T15:50:21.036Z,100241.69
2022-09-13T15:53:11.403Z,100240.13
2022-09-13T15:55:39.516Z,100224.69
2022-09-13T15:58:06.421Z,100235.19
2022-09-13T16:00:33.381Z,100230.50
2022-09-13T16:03:00.333Z,100230.28
2022-09-13T16:05:46.080Z,100228.09
2022-09-13T16:08:13.280Z,100228.94
2022-09-13T16:10:40.264Z,100224.78
2022-09-13T16:13:07.196Z,100227.56
2022-09-13T16:15:34.425Z,100233.38
2022-09-13T16:18:19.981Z,100241.66
2022-09-13T16:20:47.534Z,100241.41
2022-09-13T16:23:14.462Z,100223.25
2022-09-13T16:25:42.040Z,100238.94
2022-09-13T16:28:27.834Z,100238.97
2022-09-13T16:30:54.954Z,100240.38
2022-09-13T16:33:22.472Z,100239.56
2022-09-13T16:35:49.415Z,100245.91
2022-09-13T16:38:16.388Z,100242.63
2022-09-13T16:40:43.478Z,100244.88
2022-09-13T16:43:22.447Z,100251.53
2022-09-13T16:45:51.372Z,100250.72
2022-09-13T16:48:18.297Z,100248.78
2022-09-13T16:50:45.510Z,100256.00
2022-09-13T16:53:35.294Z,100252.97
2022-09-13T16:56:17.307Z,100258.22
2022-09-13T16:58:49.226Z,100256.56
2022-09-13T17:01:19.029Z,100263.50
2022-09-13T17:03:46.049Z,100257.72
2022-09-13T17:06:15.416Z,100248.06
2022-09-13T17:08:46.629Z,100264.06
2022-09-13T17:11:15.436Z,100271.53
2022-09-13T17:13:42.419Z,100281.44
2022-09-13T17:16:25.526Z,100273.72
2022-09-13T17:18:53.053Z,100271.50
2022-09-13T17:21:21.707Z,100273.09
2022-09-13T17:23:49.386Z,100275.88
2022-09-13T17:26:16.349Z,100272.03
2022-09-13T17:29:01.806Z,100268.66
2022-09-13T17:31:28.880Z,100268.13
2022-09-13T17:33:56.180Z,100275.81
2022-09-13T17:36:23.111Z,100276.38
2022-09-13T17:39:08.902Z,100281.31
2022-09-13T17:41:36.378Z,100271.09
2022-09-13T17:44:03.838Z,100274.09
2022-09-13T17:46:30.891Z,100285.94
2022-09-13T17:48:59.455Z,100278.72
2022-09-13T17:51:45.059Z,100286.13
2022-09-13T17:54:12.897Z,100278.94
2022-09-13T17:56:42.648Z,100282.50
2022-09-13T17:59:10.925Z,100283.84
2022-09-13T18:01:40.684Z,100281.63
2022-09-13T18:04:08.435Z,100275.53
2022-09-13T18:06:36.688Z,100277.44
2022-09-13T18:09:03.693Z,100287.06
2022-09-13T18:11:30.709Z,100281.81
2022-09-13T18:13:57.654Z,100282.63
2022-09-13T18:16:26.300Z,100280.41
2022-09-13T18:18:53.511Z,100289.75
2022-09-13T18:21:23.427Z,100289.16
2022-09-13T18:23:52.937Z,100288.00
2022-09-13T18:26:38.406Z,100287.94
2022-09-13T18:29:09.980Z,100291.25
2022-09-13T18:31:48.660Z,100291.75
2022-09-13T18:34:34.337Z,100292.81
2022-09-13T18:37:01.462Z,100293.84
2022-09-13T18:39:46.753Z,100292.72
2022-09-13T18:42:14.009Z,100293.25
2022-09-13T18:44:40.954Z,100291.09
2022-09-13T18:47:08.701Z,100292.94
2022-09-13T18:49:35.700Z,100280.00
2022-09-13T18:52:21.005Z,100279.94
2022-09-13T18:54:48.096Z,100275.31
2022-09-13T18:57:15.133Z,100276.16
2022-09-13T18:59:42.150Z,100279.38
2022-09-13T19:02:27.524Z,100246.25
2022-09-13T19:04:55.888Z,100271.84
2022-09-13T19:07:23.233Z,100268.28
2022-09-13T19:09:50.212Z,100265.53
2022-09-13T19:12:17.268Z,100270.19
2022-09-13T19:14:44.543Z,100266.03
2022-09-13T19:17:30.105Z,100263.69
2022-09-13T19:19:57.107Z,100265.63
2022-09-13T19:22:24.037Z,100257.03
2022-09-13T19:24:52.397Z,100261.34
2022-09-13T19:27:19.749Z,100251.63
2022-09-13T19:30:02.673Z,100245.88
2022-09-13T19:32:48.382Z,100251.63
2022-09-13T19:35:15.399Z,100243.66
2022-09-13T19:38:00.745Z,100239.34
2022-09-13T19:40:28.088Z,100230.84
2022-09-13T19:42:55.098Z,100233.91
2022-09-13T19:45:22.536Z,100239.41
2022-09-13T19:48:34.749Z,100240.56
2022-09-13T19:50:50.274Z,100240.94
2022-09-13T19:53:17.259Z,100245.84
2022-09-13T19:55:46.609Z,100256.88
2022-09-13T19:58:15.173Z,100255.25
2022-09-13T20:00:43.355Z,100252.75
2022-09-13T20:03:10.278Z,100243.34
2022-09-13T20:05:37.598Z,100245.53
2022-09-13T20:08:04.909Z,100246.38
2022-09-13T20:10:32.823Z,100251.78
2022-09-13T20:13:19.469Z,100255.13
2022-09-13T20:15:48.391Z,100250.97
2022-09-13T20:18:15.519Z,100256.19
2022-09-13T20:20:43.314Z,100260.09
2022-09-13T20:23:10.425Z,100254.03
2022-09-13T20:25:40.506Z,100253.69
2022-09-13T20:28:26.353Z,100250.69
2022-09-13T20:30:55.153Z,100244.19
2022-09-13T20:33:22.832Z,100240.31
2022-09-13T20:35:50.339Z,100241.59
2022-09-13T20:38:35.906Z,100239.00
2022-09-13T20:41:08.063Z,100251.25
2022-09-13T20:43:37.285Z,100251.56
2022-09-13T20:46:05.636Z,100247.44
2022-09-13T20:48:33.993Z,100257.06
2022-09-13T20:51:21.611Z,100250.47
2022-09-13T20:53:53.509Z,100236.47
2022-09-13T20:56:20.497Z,100244.22
2022-09-13T20:58:56.867Z,100239.25
2022-09-13T21:01:43.332Z,100234.88
2022-09-13T21:04:10.508Z,100240.28
2022-09-13T21:07:02.005Z,100232.84
2022-09-13T21:09:29.204Z,100229.50
2022-09-13T21:11:56.155Z,100225.06
2022-09-13T21:14:23.592Z,100224.75
2022-09-13T21:16:50.616Z,100228.88
2022-09-13T21:19:17.581Z,100226.16
2022-09-13T21:21:44.556Z,100223.41
2022-09-13T21:24:12.587Z,100226.66
2022-09-13T21:26:42.237Z,100217.81
2022-09-13T21:29:11.254Z,100219.16
2022-09-13T21:31:38.767Z,100219.31
2022-09-13T21:34:08.530Z,100225.88
2022-09-13T21:36:35.756Z,100212.09
2022-09-13T21:39:15.105Z,100211.22
2022-09-13T21:41:42.933Z,100202.75
2022-09-13T21:44:10.234Z,100206.88
2022-09-13T21:46:38.557Z,100206.88
2022-09-13T21:49:08.056Z,100211.72
2022-09-13T21:51:49.654Z,100214.44
2022-09-13T21:54:19.089Z,100215.22
2022-09-13T21:56:51.733Z,100207.25
2022-09-13T21:59:36.992Z,100214.44
2022-09-13T22:02:04.157Z,100210.84
2022-09-13T22:04:32.975Z,100213.84
2022-09-13T22:06:59.918Z,100207.84
2022-09-13T22:09:27.688Z,100215.56
2022-09-13T22:11:56.259Z,100204.34
2022-09-13T22:14:23.229Z,100215.06
2022-09-13T22:16:52.606Z,100209.66
2022-09-13T22:19:25.857Z,100208.94
2022-09-13T22:21:55.483Z,100213.91
2022-09-13T22:24:24.506Z,100219.00
2022-09-13T22:27:09.860Z,100220.25
2022-09-13T22:29:36.880Z,100210.81
2022-09-13T22:32:25.070Z,100210.31
2022-09-13T22:34:53.598Z,100209.34
2022-09-13T22:37:20.516Z,100206.34
2022-09-13T22:39:47.532Z,100197.88
2022-09-13T22:42:14.508Z,100200.56
2022-09-13T22:44:41.591Z,100184.38
2022-09-13T22:47:27.723Z,100178.44
2022-09-13T22:49:54.689Z,100172.69
2022-09-13T22:52:21.593Z,100181.75
2022-09-13T22:54:50.765Z,100181.16
2022-09-13T22:57:17.738Z,100184.13
2022-09-13T23:00:03.556Z,100178.81
2022-09-13T23:02:31.040Z,100175.63
2022-09-13T23:04:57.944Z,100167.34
2022-09-13T23:07:25.249Z,100170.66
2022-09-13T23:09:52.193Z,100169.00
2022-09-13T23:12:37.617Z,100169.31
2022-09-13T23:15:05.069Z,100160.84
2022-09-13T23:17:31.956Z,100146.03
2022-09-13T23:19:58.878Z,100145.91
2022-09-13T23:22:25.805Z,100132.16
2022-09-13T23:24:52.710Z,100131.03
2022-09-13T23:27:19.624Z,100132.34
2022-09-13T23:29:46.836Z,100132.59
2022-09-13T23:32:13.814Z,100136.69
2022-09-13T23:34:40.740Z,100145.47
2022-09-13T23:37:07.773Z,100147.50
2022-09-13T23:39:53.333Z,100153.81
2022-09-13T23:42:21.252Z,100161.84
2022-09-13T23:44:48.176Z,100163.31
2022-09-13T23:47:15.092Z,100156.75
2022-09-13T23:50:00.653Z,100153.44
2022-09-13T23:52:27.706Z,100147.97
2022-09-13T23:54:54.652Z,100136.75
2022-09-13T23:57:21.537Z,100123.94
2022-09-13T23:59:48.593Z,100131.16
